sensor_id;sensor_type;location;lat;lon;timestamp;pressure;altitude;pressure_sealevel;temperature
15607;BMP180;7865;50.918;4.510;2023-06-04T00:01:04;101515.00;;;12.50
15607;BMP180;7865;50.918;4.510;2023-06-04T00:06:17;101516.00;;;12.40
15607;BMP180;7865;50.918;4.510;2023-06-04T00:11:19;101508.00;;;12.20
15607;BMP180;7865;50.918;4.510;2023-06-04T00:16:22;101513.00;;;12.10
15607;BMP180;7865;50.918;4.510;2023-06-04T00:21:24;101507.00;;;12.00
15607;BMP180;7865;50.918;4.510;2023-06-04T00:26:26;101502.00;;;11.90
15607;BMP180;7865;50.918;4.510;2023-06-04T00:31:28;101496.00;;;11.80
15607;BMP180;7865;50.918;4.510;2023-06-04T00:36:30;101492.00;;;11.60
15607;BMP180;7865;50.918;4.510;2023-06-04T00:41:33;101495.00;;;11.60
15607;BMP180;7865;50.918;4.510;2023-06-04T00:46:35;101503.00;;;11.60
15607;BMP180;7865;50.918;4.510;2023-06-04T00:51:40;101501.00;;;11.60
15607;BMP180;7865;50.918;4.510;2023-06-04T00:56:42;101496.00;;;11.60
15607;BMP180;7865;50.918;4.510;2023-06-04T01:01:56;101493.00;;;11.70
15607;BMP180;7865;50.918;4.510;2023-06-04T01:07:03;101488.00;;;11.80
15607;BMP180;7865;50.918;4.510;2023-06-04T01:12:06;101495.00;;;11.80
15607;BMP180;7865;50.918;4.510;2023-06-04T01:17:17;101504.00;;;11.80
15607;BMP180;7865;50.918;4.510;2023-06-04T01:27:35;101495.00;;;11.70
15607;BMP180;7865;50.918;4.510;2023-06-04T01:32:37;101500.00;;;11.70
15607;BMP180;7865;50.918;4.510;2023-06-04T01:37:40;101498.00;;;11.60
15607;BMP180;7865;50.918;4.510;2023-06-04T01:42:42;101500.00;;;11.50
15607;BMP180;7865;50.918;4.510;2023-06-04T01:47:44;101500.00;;;11.50
15607;BMP180;7865;50.918;4.510;2023-06-04T01:52:46;101494.00;;;11.50
15607;BMP180;7865;50.918;4.510;2023-06-04T01:57:48;101504.00;;;11.50
15607;BMP180;7865;50.918;4.510;2023-06-04T02:02:50;101503.00;;;11.40
15607;BMP180;7865;50.918;4.510;2023-06-04T02:07:53;101496.00;;;11.40
15607;BMP180;7865;50.918;4.510;2023-06-04T02:12:58;101498.00;;;11.40
15607;BMP180;7865;50.918;4.510;2023-06-04T02:18:14;101486.00;;;11.30
15607;BMP180;7865;50.918;4.510;2023-06-04T02:23:19;101502.00;;;11.30
15607;BMP180;7865;50.918;4.510;2023-06-04T02:28:22;101505.00;;;11.20
15607;BMP180;7865;50.918;4.510;2023-06-04T02:33:24;101511.00;;;11.10
15607;BMP180;7865;50.918;4.510;2023-06-04T02:38:26;101505.00;;;11.00
15607;BMP180;7865;50.918;4.510;2023-06-04T02:43:28;101497.00;;;10.80
15607;BMP180;7865;50.918;4.510;2023-06-04T02:48:30;101499.00;;;10.70
15607;BMP180;7865;50.918;4.510;2023-06-04T02:53:33;101510.00;;;10.70
15607;BMP180;7865;50.918;4.510;2023-06-04T02:58:35;101506.00;;;10.50
15607;BMP180;7865;50.918;4.510;2023-06-04T03:03:41;101510.00;;;10.40
15607;BMP180;7865;50.918;4.510;2023-06-04T03:08:50;101508.00;;;10.30
15607;BMP180;7865;50.918;4.510;2023-06-04T03:13:53;101504.00;;;10.30
15607;BMP180;7865;50.918;4.510;2023-06-04T03:18:55;101511.00;;;10.30
15607;BMP180;7865;50.918;4.510;2023-06-04T03:23:58;101502.00;;;10.20
15607;BMP180;7865;50.918;4.510;2023-06-04T03:29:01;101503.00;;;10.20
15607;BMP180;7865;50.918;4.510;2023-06-04T03:34:03;101509.00;;;10.10
15607;BMP180;7865;50.918;4.510;2023-06-04T03:39:06;101502.00;;;10.10
15607;BMP180;7865;50.918;4.510;2023-06-04T03:44:08;101503.00;;;10.10
15607;BMP180;7865;50.918;4.510;2023-06-04T03:49:12;101510.00;;;10.10
15607;BMP180;7865;50.918;4.510;2023-06-04T03:54:17;101504.00;;;10.30
15607;BMP180;7865;50.918;4.510;2023-06-04T03:59:21;101509.00;;;10.30
15607;BMP180;7865;50.918;4.510;2023-06-04T04:04:24;101512.00;;;10.60
15607;BMP180;7865;50.918;4.510;2023-06-04T04:09:26;101506.00;;;10.60
15607;BMP180;7865;50.918;4.510;2023-06-04T04:14:29;101520.00;;;10.70
15607;BMP180;7865;50.918;4.510;2023-06-04T04:19:31;101513.00;;;10.90
15607;BMP180;7865;50.918;4.510;2023-06-04T04:24:35;101516.00;;;11.10
15607;BMP180;7865;50.918;4.510;2023-06-04T04:29:41;101518.00;;;11.20
15607;BMP180;7865;50.918;4.510;2023-06-04T04:34:54;101522.00;;;11.30
15607;BMP180;7865;50.918;4.510;2023-06-04T04:40:07;101521.00;;;11.40
15607;BMP180;7865;50.918;4.510;2023-06-04T04:45:13;101520.00;;;11.50
15607;BMP180;7865;50.918;4.510;2023-06-04T04:50:16;101526.00;;;11.70
15607;BMP180;7865;50.918;4.510;2023-06-04T04:55:19;101518.00;;;11.90
15607;BMP180;7865;50.918;4.510;2023-06-04T05:00:23;101522.00;;;12.30
15607;BMP180;7865;50.918;4.510;2023-06-04T05:05:28;101532.00;;;12.70
15607;BMP180;7865;50.918;4.510;2023-06-04T05:10:31;101544.00;;;13.20
15607;BMP180;7865;50.918;4.510;2023-06-04T05:15:34;101537.00;;;13.60
15607;BMP180;7865;50.918;4.510;2023-06-04T05:20:37;101539.00;;;14.00
15607;BMP180;7865;50.918;4.510;2023-06-04T05:25:43;101544.00;;;14.40
15607;BMP180;7865;50.918;4.510;2023-06-04T05:30:46;101537.00;;;14.80
15607;BMP180;7865;50.918;4.510;2023-06-04T05:35:51;101538.00;;;15.30
15607;BMP180;7865;50.918;4.510;2023-06-04T05:40:57;101537.00;;;15.90
15607;BMP180;7865;50.918;4.510;2023-06-04T05:46:03;101533.00;;;16.40
15607;BMP180;7865;50.918;4.510;2023-06-04T05:51:05;101538.00;;;16.80
15607;BMP180;7865;50.918;4.510;2023-06-04T05:56:08;101541.00;;;17.10
15607;BMP180;7865;50.918;4.510;2023-06-04T06:01:11;101551.00;;;17.40
15607;BMP180;7865;50.918;4.510;2023-06-04T06:06:13;101557.00;;;17.80
15607;BMP180;7865;50.918;4.510;2023-06-04T06:11:15;101553.00;;;18.20
15607;BMP180;7865;50.918;4.510;2023-06-04T06:16:18;101554.00;;;18.50
15607;BMP180;7865;50.918;4.510;2023-06-04T06:21:21;101552.00;;;18.80
15607;BMP180;7865;50.918;4.510;2023-06-04T06:26:23;101558.00;;;19.10
15607;BMP180;7865;50.918;4.510;2023-06-04T06:31:30;101555.00;;;19.40
15607;BMP180;7865;50.918;4.510;2023-06-04T06:36:32;101557.00;;;19.90
15607;BMP180;7865;50.918;4.510;2023-06-04T06:41:36;101560.00;;;20.30
15607;BMP180;7865;50.918;4.510;2023-06-04T06:46:44;101562.00;;;20.70
15607;BMP180;7865;50.918;4.510;2023-06-04T06:51:46;101572.00;;;21.00
15607;BMP180;7865;50.918;4.510;2023-06-04T06:56:48;101578.00;;;21.30
15607;BMP180;7865;50.918;4.510;2023-06-04T07:01:52;101580.00;;;21.30
15607;BMP180;7865;50.918;4.510;2023-06-04T07:06:54;101585.00;;;21.70
15607;BMP180;7865;50.918;4.510;2023-06-04T07:11:56;101590.00;;;22.20
15607;BMP180;7865;50.918;4.510;2023-06-04T07:16:58;101587.00;;;22.60
15607;BMP180;7865;50.918;4.510;2023-06-04T07:22:00;101595.00;;;23.10
15607;BMP180;7865;50.918;4.510;2023-06-04T07:27:10;101595.00;;;23.40
15607;BMP180;7865;50.918;4.510;2023-06-04T07:32:13;101586.00;;;23.80
15607;BMP180;7865;50.918;4.510;2023-06-04T07:37:15;101585.00;;;24.10
15607;BMP180;7865;50.918;4.510;2023-06-04T07:42:17;101585.00;;;24.30
15607;BMP180;7865;50.918;4.510;2023-06-04T07:47:19;101590.00;;;24.60
15607;BMP180;7865;50.918;4.510;2023-06-04T07:52:22;101593.00;;;25.00
15607;BMP180;7865;50.918;4.510;2023-06-04T07:57:24;101590.00;;;25.10
15607;BMP180;7865;50.918;4.510;2023-06-04T08:02:26;101588.00;;;25.50
15607;BMP180;7865;50.918;4.510;2023-06-04T08:07:29;101592.00;;;25.40
15607;BMP180;7865;50.918;4.510;2023-06-04T08:12:32;101582.00;;;25.30
15607;BMP180;7865;50.918;4.510;2023-06-04T08:17:34;101599.00;;;25.40
15607;BMP180;7865;50.918;4.510;2023-06-04T08:22:52;101594.00;;;25.70
15607;BMP180;7865;50.918;4.510;2023-06-04T08:28:00;101607.00;;;26.20
15607;BMP180;7865;50.918;4.510;2023-06-04T08:33:23;101612.00;;;26.50
15607;BMP180;7865;50.918;4.510;2023-06-04T08:38:45;101596.00;;;26.60
15607;BMP180;7865;50.918;4.510;2023-06-04T08:43:55;101600.00;;;27.00
15607;BMP180;7865;50.918;4.510;2023-06-04T08:49:02;101598.00;;;27.20
15607;BMP180;7865;50.918;4.510;2023-06-04T08:54:05;101598.00;;;27.60
15607;BMP180;7865;50.918;4.510;2023-06-04T08:59:10;101596.00;;;28.10
15607;BMP180;7865;50.918;4.510;2023-06-04T09:04:12;101615.00;;;28.30
15607;BMP180;7865;50.918;4.510;2023-06-04T09:09:16;101597.00;;;28.70
15607;BMP180;7865;50.918;4.510;2023-06-04T09:14:19;101615.00;;;29.10
15607;BMP180;7865;50.918;4.510;2023-06-04T09:19:21;101617.00;;;29.30
15607;BMP180;7865;50.918;4.510;2023-06-04T09:29:49;101612.00;;;29.70
15607;BMP180;7865;50.918;4.510;2023-06-04T09:35:08;101605.00;;;29.40
15607;BMP180;7865;50.918;4.510;2023-06-04T09:40:11;101614.00;;;29.10
15607;BMP180;7865;50.918;4.510;2023-06-04T09:45:13;101604.00;;;29.40
15607;BMP180;7865;50.918;4.510;2023-06-04T09:50:29;101602.00;;;29.70
15607;BMP180;7865;50.918;4.510;2023-06-04T09:55:32;101606.00;;;29.50
15607;BMP180;7865;50.918;4.510;2023-06-04T10:00:34;101594.00;;;30.00
15607;BMP180;7865;50.918;4.510;2023-06-04T10:05:37;101603.00;;;30.50
15607;BMP180;7865;50.918;4.510;2023-06-04T10:10:40;101593.00;;;30.60
15607;BMP180;7865;50.918;4.510;2023-06-04T10:15:43;101602.00;;;30.70
15607;BMP180;7865;50.918;4.510;2023-06-04T10:20:46;101597.00;;;30.60
15607;BMP180;7865;50.918;4.510;2023-06-04T10:25:49;101594.00;;;30.60
15607;BMP180;7865;50.918;4.510;2023-06-04T10:30:54;101595.00;;;30.60
15607;BMP180;7865;50.918;4.510;2023-06-04T10:35:56;101593.00;;;30.90
15607;BMP180;7865;50.918;4.510;2023-06-04T10:40:58;101594.00;;;31.00
15607;BMP180;7865;50.918;4.510;2023-06-04T10:46:13;101593.00;;;31.30
15607;BMP180;7865;50.918;4.510;2023-06-04T10:56:39;101592.00;;;31.50
15607;BMP180;7865;50.918;4.510;2023-06-04T11:01:41;101596.00;;;31.90
15607;BMP180;7865;50.918;4.510;2023-06-04T11:06:44;101594.00;;;32.10
15607;BMP180;7865;50.918;4.510;2023-06-04T11:11:58;101588.00;;;32.10
15607;BMP180;7865;50.918;4.510;2023-06-04T11:17:11;101574.00;;;31.90
15607;BMP180;7865;50.918;4.510;2023-06-04T11:22:14;101588.00;;;32.00
15607;BMP180;7865;50.918;4.510;2023-06-04T11:27:16;101572.00;;;32.10
15607;BMP180;7865;50.918;4.510;2023-06-04T11:32:37;101573.00;;;32.00
15607;BMP180;7865;50.918;4.510;2023-06-04T11:37:40;101573.00;;;32.00
15607;BMP180;7865;50.918;4.510;2023-06-04T11:42:44;101563.00;;;32.10
15607;BMP180;7865;50.918;4.510;2023-06-04T11:47:48;101560.00;;;32.50
15607;BMP180;7865;50.918;4.510;2023-06-04T11:52:52;101557.00;;;32.60
15607;BMP180;7865;50.918;4.510;2023-06-04T11:57:54;101553.00;;;32.80
15607;BMP180;7865;50.918;4.510;2023-06-04T12:02:56;101555.00;;;33.10
15607;BMP180;7865;50.918;4.510;2023-06-04T12:08:06;101556.00;;;33.20
15607;BMP180;7865;50.918;4.510;2023-06-04T12:13:11;101556.00;;;33.10
15607;BMP180;7865;50.918;4.510;2023-06-04T12:18:24;101543.00;;;33.10
15607;BMP180;7865;50.918;4.510;2023-06-04T12:23:26;101545.00;;;32.90
15607;BMP180;7865;50.918;4.510;2023-06-04T12:28:28;101549.00;;;32.60
15607;BMP180;7865;50.918;4.510;2023-06-04T12:33:30;101549.00;;;32.30
15607;BMP180;7865;50.918;4.510;2023-06-04T12:38:32;101539.00;;;32.60
15607;BMP180;7865;50.918;4.510;2023-06-04T12:43:34;101542.00;;;32.60
15607;BMP180;7865;50.918;4.510;2023-06-04T12:48:38;101536.00;;;32.60
15607;BMP180;7865;50.918;4.510;2023-06-04T12:53:44;101531.00;;;32.70
15607;BMP180;7865;50.918;4.510;2023-06-04T12:58:46;101533.00;;;32.20
15607;BMP180;7865;50.918;4.510;2023-06-04T13:03:48;101529.00;;;32.10
15607;BMP180;7865;50.918;4.510;2023-06-04T13:08:51;101526.00;;;32.40
15607;BMP180;7865;50.918;4.510;2023-06-04T13:13:53;101529.00;;;32.60
15607;BMP180;7865;50.918;4.510;2023-06-04T13:18:55;101542.00;;;32.20
15607;BMP180;7865;50.918;4.510;2023-06-04T13:23:57;101541.00;;;31.90
15607;BMP180;7865;50.918;4.510;2023-06-04T13:28:59;101536.00;;;32.10
15607;BMP180;7865;50.918;4.510;2023-06-04T13:34:01;101524.00;;;32.20
15607;BMP180;7865;50.918;4.510;2023-06-04T13:39:15;101530.00;;;31.90
15607;BMP180;7865;50.918;4.510;2023-06-04T13:44:17;101526.00;;;31.90
15607;BMP180;7865;50.918;4.510;2023-06-04T13:49:20;101524.00;;;32.20
15607;BMP180;7865;50.918;4.510;2023-06-04T13:54:22;101526.00;;;32.20
15607;BMP180;7865;50.918;4.510;2023-06-04T13:59:24;101529.00;;;32.00
15607;BMP180;7865;50.918;4.510;2023-06-04T14:04:26;101523.00;;;31.60
15607;BMP180;7865;50.918;4.510;2023-06-04T14:09:28;101517.00;;;31.50
15607;BMP180;7865;50.918;4.510;2023-06-04T14:14:30;101504.00;;;31.20
15607;BMP180;7865;50.918;4.510;2023-06-04T14:19:39;101501.00;;;31.10
15607;BMP180;7865;50.918;4.510;2023-06-04T14:24:42;101509.00;;;31.10
15607;BMP180;7865;50.918;4.510;2023-06-04T14:29:44;101501.00;;;31.00
15607;BMP180;7865;50.918;4.510;2023-06-04T14:34:46;101503.00;;;31.20
15607;BMP180;7865;50.918;4.510;2023-06-04T14:39:48;101489.00;;;31.80
15607;BMP180;7865;50.918;4.510;2023-06-04T14:44:50;101494.00;;;32.40
15607;BMP180;7865;50.918;4.510;2023-06-04T14:49:52;101489.00;;;32.30
15607;BMP180;7865;50.918;4.510;2023-06-04T14:54:54;101492.00;;;33.20
15607;BMP180;7865;50.918;4.510;2023-06-04T14:59:57;101484.00;;;34.30
15607;BMP180;7865;50.918;4.510;2023-06-04T15:04:59;101475.00;;;35.30
15607;BMP180;7865;50.918;4.510;2023-06-04T15:10:01;101475.00;;;36.00
15607;BMP180;7865;50.918;4.510;2023-06-04T15:15:05;101478.00;;;36.40
15607;BMP180;7865;50.918;4.510;2023-06-04T15:20:08;101472.00;;;36.80
15607;BMP180;7865;50.918;4.510;2023-06-04T15:25:10;101475.00;;;37.30
15607;BMP180;7865;50.918;4.510;2023-06-04T15:30:12;101485.00;;;34.60
15607;BMP180;7865;50.918;4.510;2023-06-04T15:35:15;101469.00;;;31.30
15607;BMP180;7865;50.918;4.510;2023-06-04T15:40:17;101472.00;;;30.10
15607;BMP180;7865;50.918;4.510;2023-06-04T15:45:19;101469.00;;;30.70
15607;BMP180;7865;50.918;4.510;2023-06-04T15:50:26;101467.00;;;28.80
15607;BMP180;7865;50.918;4.510;2023-06-04T15:55:28;101473.00;;;28.10
15607;BMP180;7865;50.918;4.510;2023-06-04T16:00:30;101462.00;;;27.80
15607;BMP180;7865;50.918;4.510;2023-06-04T16:05:32;101454.00;;;27.50
15607;BMP180;7865;50.918;4.510;2023-06-04T16:10:35;101447.00;;;27.20
15607;BMP180;7865;50.918;4.510;2023-06-04T16:15:37;101443.00;;;27.00
15607;BMP180;7865;50.918;4.510;2023-06-04T16:20:39;101440.00;;;26.70
15607;BMP180;7865;50.918;4.510;2023-06-04T16:25:41;101439.00;;;26.50
15607;BMP180;7865;50.918;4.510;2023-06-04T16:30:44;101434.00;;;26.20
15607;BMP180;7865;50.918;4.510;2023-06-04T16:35:46;101437.00;;;26.20
15607;BMP180;7865;50.918;4.510;2023-06-04T16:40:48;101434.00;;;26.00
15607;BMP180;7865;50.918;4.510;2023-06-04T16:45:50;101428.00;;;25.90
15607;BMP180;7865;50.918;4.510;2023-06-04T16:50:52;101426.00;;;25.80
15607;BMP180;7865;50.918;4.510;2023-06-04T16:55:55;101430.00;;;25.70
15607;BMP180;7865;50.918;4.510;2023-06-04T17:00:57;101423.00;;;25.60
15607;BMP180;7865;50.918;4.510;2023-06-04T17:06:00;101423.00;;;25.50
15607;BMP180;7865;50.918;4.510;2023-06-04T17:11:02;101429.00;;;25.40
15607;BMP180;7865;50.918;4.510;2023-06-04T17:16:04;101425.00;;;25.20
15607;BMP180;7865;50.918;4.510;2023-06-04T17:21:06;101431.00;;;25.10
15607;BMP180;7865;50.918;4.510;2023-06-04T17:26:08;101425.00;;;25.00
15607;BMP180;7865;50.918;4.510;2023-06-04T17:31:10;101426.00;;;25.00
15607;BMP180;7865;50.918;4.510;2023-06-04T17:36:19;101417.00;;;24.80
15607;BMP180;7865;50.918;4.510;2023-06-04T17:41:22;101417.00;;;24.70
15607;BMP180;7865;50.918;4.510;2023-06-04T17:46:24;101424.00;;;24.60
15607;BMP180;7865;50.918;4.510;2023-06-04T17:51:26;101421.00;;;24.50
15607;BMP180;7865;50.918;4.510;2023-06-04T17:56:28;101421.00;;;24.30
15607;BMP180;7865;50.918;4.510;2023-06-04T18:01:31;101426.00;;;24.20
15607;BMP180;7865;50.918;4.510;2023-06-04T18:06:33;101437.00;;;24.10
15607;BMP180;7865;50.918;4.510;2023-06-04T18:11:35;101423.00;;;23.90
15607;BMP180;7865;50.918;4.510;2023-06-04T18:16:37;101434.00;;;23.70
15607;BMP180;7865;50.918;4.510;2023-06-04T18:21:40;101437.00;;;23.60
15607;BMP180;7865;50.918;4.510;2023-06-04T18:26:42;101432.00;;;23.50
15607;BMP180;7865;50.918;4.510;2023-06-04T18:31:44;101434.00;;;23.30
15607;BMP180;7865;50.918;4.510;2023-06-04T18:36:49;101433.00;;;23.20
15607;BMP180;7865;50.918;4.510;2023-06-04T18:41:54;101439.00;;;23.00
15607;BMP180;7865;50.918;4.510;2023-06-04T18:46:58;101432.00;;;22.80
15607;BMP180;7865;50.918;4.510;2023-06-04T18:52:01;101440.00;;;22.60
15607;BMP180;7865;50.918;4.510;2023-06-04T18:57:03;101434.00;;;22.40
15607;BMP180;7865;50.918;4.510;2023-06-04T19:02:06;101439.00;;;22.20
15607;BMP180;7865;50.918;4.510;2023-06-04T19:07:08;101445.00;;;22.00
15607;BMP180;7865;50.918;4.510;2023-06-04T19:12:10;101442.00;;;21.80
15607;BMP180;7865;50.918;4.510;2023-06-04T19:17:20;101450.00;;;21.60
15607;BMP180;7865;50.918;4.510;2023-06-04T19:22:22;101464.00;;;21.30
15607;BMP180;7865;50.918;4.510;2023-06-04T19:27:24;101463.00;;;21.00
15607;BMP180;7865;50.918;4.510;2023-06-04T19:32:27;101470.00;;;20.70
15607;BMP180;7865;50.918;4.510;2023-06-04T19:37:29;101465.00;;;20.50
15607;BMP180;7865;50.918;4.510;2023-06-04T19:42:32;101479.00;;;20.20
15607;BMP180;7865;50.918;4.510;2023-06-04T19:47:34;101485.00;;;20.00
15607;BMP180;7865;50.918;4.510;2023-06-04T19:52:36;101485.00;;;19.80
15607;BMP180;7865;50.918;4.510;2023-06-04T19:57:39;101493.00;;;19.60
15607;BMP180;7865;50.918;4.510;2023-06-04T20:02:42;101494.00;;;19.50
15607;BMP180;7865;50.918;4.510;2023-06-04T20:07:44;101506.00;;;19.30
15607;BMP180;7865;50.918;4.510;2023-06-04T20:12:46;101503.00;;;19.20
15607;BMP180;7865;50.918;4.510;2023-06-04T20:17:48;101515.00;;;19.00
15607;BMP180;7865;50.918;4.510;2023-06-04T20:22:51;101523.00;;;18.80
15607;BMP180;7865;50.918;4.510;2023-06-04T20:27:53;101526.00;;;18.70
15607;BMP180;7865;50.918;4.510;2023-06-04T20:32:55;101525.00;;;18.60
15607;BMP180;7865;50.918;4.510;2023-06-04T20:37:57;101539.00;;;18.50
15607;BMP180;7865;50.918;4.510;2023-06-04T20:42:59;101539.00;;;18.40
15607;BMP180;7865;50.918;4.510;2023-06-04T20:48:01;101542.00;;;18.30
15607;BMP180;7865;50.918;4.510;2023-06-04T20:53:03;101545.00;;;18.20
15607;BMP180;7865;50.918;4.510;2023-06-04T20:58:05;101539.00;;;18.00
15607;BMP180;7865;50.918;4.510;2023-06-04T21:03:07;101549.00;;;17.90
15607;BMP180;7865;50.918;4.510;2023-06-04T21:08:09;101548.00;;;17.80
15607;BMP180;7865;50.918;4.510;2023-06-04T21:13:11;101557.00;;;17.70
15607;BMP180;7865;50.918;4.510;2023-06-04T21:18:14;101560.00;;;17.50
15607;BMP180;7865;50.918;4.510;2023-06-04T21:23:17;101564.00;;;17.40
15607;BMP180;7865;50.918;4.510;2023-06-04T21:28:19;101570.00;;;17.30
15607;BMP180;7865;50.918;4.510;2023-06-04T21:33:22;101578.00;;;17.20
15607;BMP180;7865;50.918;4.510;2023-06-04T21:38:24;101579.00;;;17.10
15607;BMP180;7865;50.918;4.510;2023-06-04T21:43:28;101583.00;;;17.00
15607;BMP180;7865;50.918;4.510;2023-06-04T21:48:30;101579.00;;;16.90
15607;BMP180;7865;50.918;4.510;2023-06-04T21:53:32;101589.00;;;16.80
15607;BMP180;7865;50.918;4.510;2023-06-04T21:58:34;101588.00;;;16.70
15607;BMP180;7865;50.918;4.510;2023-06-04T22:03:37;101593.00;;;16.60
15607;BMP180;7865;50.918;4.510;2023-06-04T22:08:39;101597.00;;;16.50
15607;BMP180;7865;50.918;4.510;2023-06-04T22:13:41;101596.00;;;16.40
15607;BMP180;7865;50.918;4.510;2023-06-04T22:18:43;101597.00;;;16.30
15607;BMP180;7865;50.918;4.510;2023-06-04T22:23:54;101596.00;;;16.20
15607;BMP180;7865;50.918;4.510;2023-06-04T22:28:57;101600.00;;;16.10
15607;BMP180;7865;50.918;4.510;2023-06-04T22:33:59;101612.00;;;16.00
15607;BMP180;7865;50.918;4.510;2023-06-04T22:39:01;101606.00;;;15.90
15607;BMP180;7865;50.918;4.510;2023-06-04T22:44:03;101609.00;;;15.80
15607;BMP180;7865;50.918;4.510;2023-06-04T22:49:06;101606.00;;;15.70
15607;BMP180;7865;50.918;4.510;2023-06-04T22:54:08;101612.00;;;15.60
15607;BMP180;7865;50.918;4.510;2023-06-04T22:59:10;101603.00;;;15.50
15607;BMP180;7865;50.918;4.510;2023-06-04T23:04:11;101596.00;;;15.40
15607;BMP180;7865;50.918;4.510;2023-06-04T23:09:14;101607.00;;;15.30
15607;BMP180;7865;50.918;4.510;2023-06-04T23:14:17;101614.00;;;15.20
15607;BMP180;7865;50.918;4.510;2023-06-04T23:19:19;101614.00;;;15.20
15607;BMP180;7865;50.918;4.510;2023-06-04T23:24:22;101624.00;;;15.10
15607;BMP180;7865;50.918;4.510;2023-06-04T23:29:24;101623.00;;;15.00
15607;BMP180;7865;50.918;4.510;2023-06-04T23:34:26;101615.00;;;14.90
15607;BMP180;7865;50.918;4.510;2023-06-04T23:39:28;101615.00;;;14.80
15607;BMP180;7865;50.918;4.510;2023-06-04T23:44:30;101615.00;;;14.70
15607;BMP180;7865;50.918;4.510;2023-06-04T23:49:33;101608.00;;;14.60
15607;BMP180;7865;50.918;4.510;2023-06-04T23:54:35;101603.00;;;14.50
15607;BMP180;7865;50.918;4.510;2023-06-04T23:59:37;101608.00;;;14.50
